createdAt,value
2019-02-22T00:00:53.278Z,175.72
2019-02-22T00:03:21.991Z,171.45
2019-02-22T00:05:50.406Z,174.20
2019-02-22T00:08:18.824Z,158.52
2019-02-22T00:10:47.240Z,159.32
2019-02-22T00:13:18.651Z,146.82
2019-02-22T00:15:47.060Z,149.55
2019-02-22T00:18:15.500Z,142.05
2019-02-22T00:20:43.948Z,135.90
2019-02-22T00:23:12.389Z,114.35
2019-02-22T00:25:40.803Z,111.35
2019-02-22T00:28:09.234Z,116.35
2019-02-22T00:30:37.648Z,125.82
2019-02-22T00:33:06.435Z,126.38
2019-02-22T00:35:34.860Z,131.93
2019-02-22T00:38:03.265Z,110.50
2019-02-22T00:40:31.976Z,116.67
2019-02-22T00:43:00.396Z,113.50
2019-02-22T00:45:28.820Z,118.20
2019-02-22T00:47:57.647Z,143.45
2019-02-22T00:50:26.059Z,101.15
2019-02-22T00:52:54.469Z,125.53
2019-02-22T00:55:22.900Z,108.57
2019-02-22T00:57:51.329Z,108.10
2019-02-22T01:00:19.752Z,134.15
2019-02-22T01:02:48.167Z,109.20
2019-02-22T01:05:16.898Z,99.03
2019-02-22T01:07:45.582Z,100.60
2019-02-22T01:10:14.014Z,91.53
2019-02-22T01:12:42.427Z,103.70
2019-02-22T01:15:11.228Z,111.37
2019-02-22T01:17:39.638Z,82.42
2019-02-22T01:20:08.050Z,88.75
2019-02-22T01:22:36.483Z,89.50
2019-02-22T01:25:05.538Z,84.35
2019-02-22T01:27:33.948Z,88.42
2019-02-22T01:30:02.373Z,80.95
2019-02-22T01:32:31.099Z,74.97
2019-02-22T01:34:59.519Z,73.00
2019-02-22T01:37:27.938Z,87.17
2019-02-22T01:39:56.370Z,85.55
2019-02-22T01:42:25.131Z,82.15
2019-02-22T01:44:53.541Z,81.28
2019-02-22T01:47:21.979Z,87.15
2019-02-22T01:49:50.385Z,74.05
2019-02-22T01:52:18.818Z,73.47
2019-02-22T01:54:47.228Z,69.15
2019-02-22T01:57:15.942Z,71.07
2019-02-22T01:59:44.355Z,77.47
2019-02-22T02:02:12.768Z,65.92
2019-02-22T02:04:41.181Z,65.40
2019-02-22T02:07:09.602Z,69.58
2019-02-22T02:09:38.003Z,70.03
2019-02-22T02:12:06.696Z,74.25
2019-02-22T02:14:35.113Z,74.50
2019-02-22T02:17:03.528Z,73.47
2019-02-22T02:19:31.932Z,71.02
2019-02-22T02:22:00.355Z,73.78
2019-02-22T02:24:28.754Z,70.95
2019-02-22T02:26:57.181Z,67.67
2019-02-22T02:29:25.606Z,58.13
2019-02-22T02:31:54.019Z,57.50
2019-02-22T02:34:22.424Z,56.15
2019-02-22T02:36:50.837Z,62.95
2019-02-22T02:39:19.245Z,54.85
2019-02-22T02:41:47.971Z,51.23
2019-02-22T02:44:16.383Z,61.45
2019-02-22T02:46:44.795Z,53.00
2019-02-22T02:49:13.219Z,54.05
2019-02-22T02:51:42.093Z,58.05
2019-02-22T02:54:10.513Z,52.75
2019-02-22T02:56:38.912Z,56.10
2019-02-22T02:59:07.327Z,52.27
2019-02-22T03:01:35.733Z,55.23
2019-02-22T03:04:07.981Z,57.90
2019-02-22T03:06:38.058Z,55.00
2019-02-22T03:09:08.786Z,53.87
2019-02-22T03:11:37.191Z,60.05
2019-02-22T03:14:05.609Z,55.38
2019-02-22T03:16:34.032Z,55.75
2019-02-22T03:19:02.438Z,49.50
2019-02-22T03:21:30.855Z,48.48
2019-02-22T03:23:59.291Z,52.30
2019-02-22T03:26:28.009Z,48.40
2019-02-22T03:28:56.407Z,45.88
2019-02-22T03:31:25.276Z,47.83
2019-02-22T03:33:53.686Z,46.35
2019-02-22T03:36:22.350Z,50.67
2019-02-22T03:38:51.127Z,47.95
2019-02-22T03:41:31.962Z,43.13
2019-02-22T03:43:50.044Z,42.48
2019-02-22T03:46:18.455Z,44.05
2019-02-22T03:48:46.859Z,50.35
2019-02-22T03:51:15.311Z,49.90
2019-02-22T03:53:45.364Z,44.25
2019-02-22T03:56:13.790Z,40.90
2019-02-22T03:58:42.459Z,44.03
2019-02-22T04:01:10.885Z,40.17
2019-02-22T04:03:39.284Z,39.35
2019-02-22T04:06:07.714Z,37.05
2019-02-22T04:08:36.115Z,37.15
2019-02-22T04:11:04.964Z,28.47
2019-02-22T04:13:33.849Z,29.15
2019-02-22T04:16:02.269Z,37.28
2019-02-22T04:18:31.020Z,25.02
2019-02-22T04:20:59.439Z,21.82
2019-02-22T04:23:28.292Z,21.00
2019-02-22T04:25:56.843Z,16.15
2019-02-22T04:28:25.200Z,16.30
2019-02-22T04:30:53.609Z,12.85
2019-02-22T04:33:22.027Z,12.15
2019-02-22T04:35:50.702Z,11.65
2019-02-22T04:38:19.118Z,12.10
2019-02-22T04:40:47.515Z,10.13
2019-02-22T04:43:15.936Z,12.47
2019-02-22T04:45:44.328Z,9.48
2019-02-22T04:48:12.739Z,9.00
2019-02-22T04:50:41.213Z,7.22
2019-02-22T04:53:09.619Z,7.12
2019-02-22T04:55:38.024Z,7.95
2019-02-22T04:58:06.435Z,6.62
2019-02-22T05:00:35.185Z,5.78
2019-02-22T05:03:03.890Z,7.25
2019-02-22T05:05:32.286Z,5.92
2019-02-22T05:08:00.708Z,5.42
2019-02-22T05:10:29.129Z,5.80
2019-02-22T05:12:57.809Z,7.80
2019-02-22T05:15:26.216Z,7.12
2019-02-22T05:17:54.630Z,7.45
2019-02-22T05:20:23.029Z,6.78
2019-02-22T05:23:03.005Z,6.30
2019-02-22T05:25:21.555Z,6.05
2019-02-22T05:27:49.969Z,7.75
2019-02-22T05:30:18.368Z,8.75
2019-02-22T05:32:46.788Z,8.33
2019-02-22T05:35:15.192Z,7.33
2019-02-22T05:37:43.602Z,8.30
2019-02-22T05:40:12.004Z,8.15
2019-02-22T05:42:40.418Z,8.43
2019-02-22T05:45:08.900Z,19.15
2019-02-22T05:47:37.682Z,10.20
2019-02-22T05:50:06.453Z,10.58
2019-02-22T05:52:34.937Z,11.43
2019-02-22T05:55:03.343Z,11.53
2019-02-22T05:57:31.751Z,11.85
2019-02-22T06:00:00.343Z,15.58
2019-02-22T06:02:29.073Z,12.98
2019-02-22T06:04:57.471Z,15.35
2019-02-22T06:07:25.881Z,13.70
2019-02-22T06:09:54.308Z,13.05
2019-02-22T06:12:33.912Z,13.53
2019-02-22T06:14:53.223Z,14.63
2019-02-22T06:17:21.622Z,13.95
2019-02-22T06:19:50.302Z,12.03
2019-02-22T06:22:29.021Z,11.73
2019-02-22T06:24:49.398Z,13.53
2019-02-22T06:27:17.811Z,12.25
2019-02-22T06:29:52.213Z,15.60
2019-02-22T06:32:20.640Z,13.22
2019-02-22T06:34:49.054Z,13.28
2019-02-22T06:37:17.475Z,15.25
2019-02-22T06:39:45.900Z,13.83
2019-02-22T06:42:14.347Z,13.55
2019-02-22T06:44:42.711Z,14.80
2019-02-22T06:47:11.130Z,14.28
2019-02-22T06:49:39.838Z,11.33
2019-02-22T06:52:08.318Z,17.30
2019-02-22T06:54:36.727Z,15.70
2019-02-22T06:57:05.144Z,15.23
2019-02-22T06:59:33.549Z,11.40
2019-02-22T07:02:01.951Z,13.68
2019-02-22T07:04:30.727Z,18.05
2019-02-22T07:06:59.177Z,16.82
2019-02-22T07:09:27.582Z,18.32
2019-02-22T07:12:00.575Z,19.25
2019-02-22T07:14:28.998Z,15.23
2019-02-22T07:16:57.409Z,17.57
2019-02-22T07:55:09.632Z,21.00
2019-02-22T07:57:40.078Z,20.62
2019-02-22T08:00:14.004Z,21.55
2019-02-22T08:02:42.403Z,20.30
2019-02-22T08:09:57.039Z,19.92
2019-02-22T08:12:25.714Z,13.00
2019-02-22T08:15:31.390Z,16.40
2019-02-22T08:23:37.770Z,14.53
2019-02-22T08:26:06.485Z,17.75
2019-02-22T08:42:13.546Z,8.80
2019-02-22T08:44:42.231Z,8.00
2019-02-22T08:47:10.904Z,13.22
2019-02-22T08:49:39.594Z,7.37
2019-02-22T08:52:08.024Z,9.45
2019-02-22T08:54:46.577Z,9.58
2019-02-22T08:57:06.722Z,6.95
2019-02-22T08:59:35.125Z,8.63
2019-02-22T09:02:03.547Z,10.23
2019-02-22T09:04:31.950Z,7.70
2019-02-22T09:07:00.360Z,6.10
2019-02-22T09:09:28.769Z,8.23
2019-02-22T09:11:57.845Z,7.12
2019-02-22T09:14:26.401Z,5.70
2019-02-22T09:16:54.806Z,9.30
2019-02-22T09:19:23.205Z,6.30
2019-02-22T09:21:51.617Z,8.93
2019-02-22T09:24:20.016Z,5.35
2019-02-22T09:26:48.437Z,7.62
2019-02-22T09:29:16.825Z,6.78
2019-02-22T09:31:45.529Z,6.72
2019-02-22T09:34:13.942Z,6.75
2019-02-22T09:36:42.340Z,7.30
2019-02-22T09:39:10.763Z,16.00
2019-02-22T09:41:39.165Z,8.43
2019-02-22T09:44:07.946Z,5.87
2019-02-22T09:46:36.349Z,7.70
2019-02-22T09:49:04.765Z,6.87
2019-02-22T09:51:33.163Z,6.20
2019-02-22T09:54:01.566Z,6.30
2019-02-22T09:56:30.225Z,5.22
2019-02-22T09:58:58.635Z,6.35
2019-02-22T10:01:27.391Z,3.70
2019-02-22T10:03:55.805Z,6.67
2019-02-22T10:06:24.241Z,7.47
2019-02-22T10:08:52.614Z,6.92
2019-02-22T10:11:21.312Z,6.35
2019-02-22T10:13:50.106Z,7.95
2019-02-22T10:16:18.516Z,3.70
2019-02-22T10:18:47.059Z,4.10
2019-02-22T10:21:15.511Z,6.12
2019-02-22T10:23:43.900Z,4.55
2019-02-22T10:26:12.308Z,5.80
2019-02-22T10:28:40.726Z,6.40
2019-02-22T10:31:09.141Z,3.77
2019-02-22T10:33:37.552Z,3.42
2019-02-22T10:36:05.956Z,5.15
2019-02-22T10:38:35.957Z,5.22
2019-02-22T10:41:04.541Z,8.88
2019-02-22T10:43:32.945Z,10.53
2019-02-22T10:46:01.361Z,5.95
2019-02-22T10:48:29.755Z,5.75
2019-02-22T10:50:59.418Z,6.37
2019-02-22T10:53:28.377Z,4.33
2019-02-22T10:55:57.158Z,4.08
2019-02-22T10:58:25.560Z,4.92
2019-02-22T11:00:54.319Z,4.37
2019-02-22T11:03:23.007Z,5.17
2019-02-22T11:05:51.489Z,5.15
2019-02-22T11:08:19.895Z,7.58
2019-02-22T11:10:48.657Z,4.17
2019-02-22T11:13:17.062Z,9.55
2019-02-22T11:15:45.479Z,6.50
2019-02-22T11:18:14.196Z,5.08
2019-02-22T11:20:42.603Z,5.83
2019-02-22T11:23:11.032Z,7.78
2019-02-22T11:25:39.445Z,3.67
2019-02-22T11:28:08.234Z,4.78
2019-02-22T11:30:36.636Z,8.13
2019-02-22T11:33:05.116Z,6.60
2019-02-22T11:35:33.518Z,8.03
2019-02-22T11:38:02.263Z,5.65
2019-02-22T11:40:30.664Z,4.65
2019-02-22T11:42:59.097Z,7.55
2019-02-22T11:45:27.506Z,6.05
2019-02-22T11:47:55.924Z,7.15
2019-02-22T11:50:24.326Z,4.55
2019-02-22T11:52:52.748Z,4.87
2019-02-22T11:55:21.547Z,7.60
2019-02-22T11:57:49.965Z,5.78
2019-02-22T12:00:23.295Z,5.67
2019-02-22T12:02:51.745Z,10.13
2019-02-22T12:05:20.109Z,8.75
2019-02-22T12:07:48.843Z,6.78
2019-02-22T12:10:17.545Z,5.95
2019-02-22T12:12:45.998Z,6.22
2019-02-22T12:15:14.833Z,6.05
2019-02-22T12:17:43.591Z,6.22
2019-02-22T12:20:12.599Z,4.67
2019-02-22T12:22:40.999Z,6.40
2019-02-22T12:25:11.545Z,8.05
2019-02-22T12:27:39.941Z,9.20
2019-02-22T12:30:19.065Z,6.20
2019-02-22T12:32:47.467Z,5.15
2019-02-22T12:35:15.883Z,4.90
2019-02-22T12:37:44.456Z,6.65
2019-02-22T12:40:13.240Z,6.28
2019-02-22T12:42:41.647Z,6.62
2019-02-22T12:45:11.611Z,4.60
2019-02-22T12:47:40.314Z,3.85
2019-02-22T12:50:12.433Z,6.10
2019-02-22T12:55:11.603Z,6.97
2019-02-22T12:57:40.293Z,6.08
2019-02-22T13:00:19.317Z,8.05
2019-02-22T13:02:48.088Z,4.75
2019-02-22T13:05:22.090Z,5.25
2019-02-22T13:07:52.574Z,8.18
2019-02-22T13:10:21.019Z,4.90
2019-02-22T13:12:49.440Z,7.45
2019-02-22T13:15:18.197Z,6.00
2019-02-22T13:17:46.874Z,5.03
2019-02-22T13:20:15.342Z,5.87
2019-02-22T13:22:44.040Z,4.85
2019-02-22T13:25:12.465Z,7.22
2019-02-22T13:27:40.864Z,6.10
2019-02-22T13:30:14.671Z,5.00
2019-02-22T13:32:43.978Z,5.72
2019-02-22T13:35:12.377Z,5.12
2019-02-22T13:37:41.061Z,5.95
2019-02-22T13:40:15.548Z,4.42
2019-02-22T13:42:44.317Z,6.47
2019-02-22T13:45:25.538Z,4.12
2019-02-22T13:47:44.137Z,7.85
2019-02-22T13:50:19.850Z,7.22
2019-02-22T13:52:48.261Z,9.65
2019-02-22T13:55:16.688Z,5.12
2019-02-22T13:57:45.087Z,5.45
2019-02-22T14:00:18.868Z,4.40
2019-02-22T14:02:47.246Z,6.22
2019-02-22T14:05:15.739Z,5.28
2019-02-22T14:07:57.027Z,4.53
2019-02-22T14:10:26.087Z,9.30
2019-02-22T14:12:54.489Z,5.28
2019-02-22T14:15:22.920Z,6.40
2019-02-22T14:17:51.332Z,5.37
2019-02-22T14:20:20.111Z,6.00
2019-02-22T14:22:50.255Z,5.25
2019-02-22T14:25:18.730Z,4.47
2019-02-22T14:27:47.130Z,4.80
2019-02-22T14:30:18.220Z,4.17
2019-02-22T14:32:47.221Z,3.40
2019-02-22T14:35:15.710Z,4.60
2019-02-22T14:37:44.233Z,4.60
2019-02-22T14:40:13.602Z,5.78
2019-02-22T14:42:42.005Z,5.75
2019-02-22T14:45:14.739Z,6.72
2019-02-22T14:47:43.146Z,5.75
2019-02-22T14:50:16.943Z,7.35
2019-02-22T14:52:50.222Z,3.52
2019-02-22T14:55:16.445Z,4.45
2019-02-22T14:57:45.501Z,4.95
2019-02-22T15:00:16.717Z,4.45
2019-02-22T15:02:45.127Z,6.85
2019-02-22T15:05:16.626Z,4.78
2019-02-22T15:07:45.020Z,3.83
2019-02-22T15:10:13.566Z,5.50
2019-02-22T15:12:42.064Z,8.00
2019-02-22T15:15:18.873Z,3.80
2019-02-22T15:17:48.930Z,7.30
2019-02-22T15:20:17.658Z,4.90
2019-02-22T15:22:46.080Z,8.28
2019-02-22T15:25:16.232Z,4.37
2019-02-22T15:27:44.933Z,3.30
2019-02-22T15:30:15.173Z,5.00
2019-02-22T15:32:43.845Z,4.37
2019-02-22T15:35:14.474Z,7.92
2019-02-22T15:37:43.586Z,7.75
2019-02-22T15:40:13.591Z,5.75
2019-02-22T15:42:42.389Z,5.53
2019-02-22T15:45:18.478Z,8.55
2019-02-22T15:47:48.852Z,6.72
2019-02-22T15:50:18.343Z,4.83
2019-02-22T15:52:48.225Z,9.58
2019-02-22T15:55:16.665Z,8.00
2019-02-22T15:57:45.438Z,5.55
2019-02-22T16:00:25.843Z,8.58
2019-02-22T16:02:54.515Z,4.78
2019-02-22T16:05:24.631Z,5.80
2019-02-22T16:07:53.298Z,6.67
2019-02-22T16:10:21.707Z,5.12
2019-02-22T16:12:50.183Z,5.50
2019-02-22T16:15:18.954Z,7.08
2019-02-22T16:17:47.939Z,5.03
2019-02-22T16:20:17.861Z,5.80
2019-02-22T16:22:46.902Z,9.43
2019-02-22T16:25:19.474Z,7.10
2019-02-22T16:27:45.856Z,5.80
2019-02-22T16:30:17.740Z,7.03
2019-02-22T16:32:46.145Z,5.92
2019-02-22T16:35:15.181Z,6.80
2019-02-22T16:37:44.168Z,5.95
2019-02-22T16:40:13.218Z,4.58
2019-02-22T16:42:41.890Z,6.78
2019-02-22T16:45:12.152Z,6.50
2019-02-22T16:47:42.421Z,5.25
2019-02-22T16:50:12.341Z,7.00
2019-02-22T16:52:40.770Z,5.53
2019-02-22T16:55:12.116Z,10.98
2019-02-22T16:57:42.051Z,7.58
2019-02-22T17:00:12.822Z,6.10
2019-02-22T17:02:41.279Z,9.30
2019-02-22T17:05:12.021Z,7.87
2019-02-22T17:07:40.512Z,9.20
2019-02-22T17:10:11.324Z,7.37
2019-02-22T17:12:39.871Z,7.05
2019-02-22T17:15:11.295Z,8.33
2019-02-22T17:17:44.601Z,7.72
2019-02-22T17:20:15.338Z,9.28
2019-02-22T17:22:43.920Z,6.95
2019-02-22T17:25:17.168Z,7.70
2019-02-22T17:27:45.615Z,6.50
2019-02-22T17:30:16.495Z,9.08
2019-02-22T17:32:44.861Z,5.97
2019-02-22T17:35:13.339Z,4.95
2019-02-22T17:37:41.750Z,7.28
2019-02-22T17:40:13.412Z,12.13
2019-02-22T17:42:42.065Z,5.42
2019-02-22T17:45:10.758Z,8.30
2019-02-22T17:47:39.165Z,7.80
2019-02-22T17:50:09.616Z,6.92
2019-02-22T17:52:38.013Z,8.78
2019-02-22T17:55:08.366Z,9.55
2019-02-22T17:57:36.765Z,5.10
2019-02-22T18:00:15.632Z,10.72
2019-02-22T18:02:44.168Z,5.42
2019-02-22T18:05:12.620Z,8.95
2019-02-22T18:07:41.022Z,8.18
2019-02-22T18:10:10.774Z,6.30
2019-02-22T18:12:39.171Z,7.08
2019-02-22T18:15:17.220Z,7.45
2019-02-22T18:17:44.800Z,5.33
2019-02-22T18:20:13.250Z,9.80
2019-02-22T18:22:41.943Z,7.40
2019-02-22T18:25:10.477Z,6.40
2019-02-22T18:27:40.321Z,8.58
2019-02-22T18:30:17.825Z,5.20
2019-02-22T18:32:46.265Z,8.48
2019-02-22T18:35:15.011Z,6.65
2019-02-22T18:37:43.684Z,7.40
2019-02-22T18:40:15.235Z,6.60
2019-02-22T18:42:43.659Z,6.35
2019-02-22T18:45:12.077Z,9.53
2019-02-22T18:47:40.480Z,7.53
2019-02-22T18:50:11.965Z,6.97
2019-02-22T18:52:40.366Z,8.43
2019-02-22T18:55:10.129Z,10.88
2019-02-22T18:57:39.105Z,9.30
2019-02-22T19:00:20.315Z,8.70
2019-02-22T19:02:49.279Z,7.95
2019-02-22T19:05:17.748Z,10.30
2019-02-22T19:07:46.159Z,8.60
2019-02-22T19:10:15.593Z,7.47
2019-02-22T19:12:44.002Z,7.20
2019-02-22T19:15:18.215Z,10.60
2019-02-22T19:17:46.640Z,6.78
2019-02-22T19:20:21.580Z,6.70
2019-02-22T19:22:49.990Z,7.97
2019-02-22T19:25:18.422Z,12.80
2019-02-22T19:27:46.906Z,7.40
2019-02-22T19:30:20.100Z,8.68
2019-02-22T19:32:48.511Z,7.30
2019-02-22T19:35:16.904Z,7.83
2019-02-22T19:37:45.326Z,10.00
2019-02-22T19:40:16.361Z,9.95
2019-02-22T19:42:44.788Z,10.20
2019-02-22T19:45:13.230Z,8.55
2019-02-22T19:47:42.530Z,8.63
2019-02-22T19:50:14.529Z,7.00
2019-02-22T19:52:42.943Z,9.68
2019-02-22T19:55:19.143Z,8.25
2019-02-22T19:57:47.537Z,8.38
2019-02-22T20:00:19.571Z,10.43
2019-02-22T20:05:16.155Z,10.03
2019-02-22T20:07:44.560Z,7.80
2019-02-22T20:10:18.103Z,13.55
2019-02-22T20:12:45.370Z,10.43
2019-02-22T20:15:18.081Z,8.83
2019-02-22T20:17:53.910Z,8.43
2019-02-22T20:20:18.021Z,8.35
2019-02-22T20:22:46.610Z,8.33
2019-02-22T20:25:15.097Z,9.00
2019-02-22T20:27:43.515Z,8.78
2019-02-22T20:30:14.459Z,7.28
2019-02-22T20:32:42.849Z,8.75
2019-02-22T20:35:13.813Z,12.47
2019-02-22T20:37:51.763Z,8.80
2019-02-22T20:40:12.345Z,9.78
2019-02-22T20:42:40.814Z,8.30
2019-02-22T20:45:11.385Z,9.48
2019-02-22T20:47:39.784Z,11.00
2019-02-22T20:50:11.297Z,5.90
2019-02-22T20:52:39.708Z,9.65
2019-02-22T20:55:11.875Z,8.73
2019-02-22T20:57:40.417Z,7.72
2019-02-22T21:00:15.292Z,10.58
2019-02-22T21:02:43.694Z,6.80
2019-02-22T21:05:12.158Z,11.75
2019-02-22T21:07:40.615Z,10.72
2019-02-22T21:10:11.719Z,9.58
2019-02-22T21:12:40.452Z,8.47
2019-02-22T21:15:11.324Z,11.15
2019-02-22T21:17:39.749Z,8.15
2019-02-22T21:20:10.917Z,13.28
2019-02-22T21:22:39.328Z,8.58
2019-02-22T21:25:09.877Z,9.45
2019-02-22T21:27:38.308Z,8.58
2019-02-22T21:30:09.813Z,7.35
2019-02-22T21:32:38.223Z,9.70
2019-02-22T21:35:08.164Z,10.35
2019-02-22T21:37:36.650Z,13.05
2019-02-22T21:40:07.400Z,11.70
2019-02-22T21:42:36.118Z,9.45
2019-02-22T21:45:06.658Z,10.80
2019-02-22T21:47:35.108Z,8.28
2019-02-22T21:50:04.459Z,9.00
2019-02-22T21:52:32.880Z,7.53
2019-02-22T21:55:01.280Z,6.33
2019-02-22T21:57:29.706Z,9.30
2019-02-22T21:59:58.118Z,7.45
2019-02-22T22:02:26.876Z,6.83
2019-02-22T22:04:55.329Z,11.25
2019-02-22T22:07:23.718Z,6.80
2019-02-22T22:09:52.198Z,6.08
2019-02-22T22:12:20.597Z,9.50
2019-02-22T22:14:49.014Z,8.85
2019-02-22T22:17:17.415Z,8.23
2019-02-22T22:19:45.887Z,7.53
2019-02-22T22:22:14.265Z,7.33
2019-02-22T22:24:43.047Z,7.87
2019-02-22T22:27:11.445Z,8.28
2019-02-22T22:29:39.853Z,16.90
2019-02-22T22:32:08.258Z,8.73
2019-02-22T22:34:36.665Z,9.73
2019-02-22T22:37:05.067Z,6.45
2019-02-22T22:39:33.482Z,6.03
2019-02-22T22:42:01.885Z,6.90
2019-02-22T22:44:30.317Z,7.35
2019-02-22T22:46:59.086Z,8.03
2019-02-22T22:49:27.518Z,7.30
2019-02-22T22:51:55.913Z,8.05
2019-02-22T22:54:24.320Z,8.73
2019-02-22T22:56:53.145Z,8.10
2019-02-22T22:59:21.544Z,7.03
2019-02-22T23:01:50.892Z,8.58
2019-02-22T23:04:19.302Z,6.60
2019-02-22T23:06:48.057Z,19.75
2019-02-22T23:09:20.740Z,7.75
2019-02-22T23:11:49.151Z,7.50
2019-02-22T23:14:17.634Z,6.28
2019-02-22T23:16:46.367Z,6.58
2019-02-22T23:19:14.847Z,6.20
2019-02-22T23:21:43.550Z,9.03
2019-02-22T23:24:11.950Z,6.70
2019-02-22T23:26:40.717Z,6.42
2019-02-22T23:29:09.402Z,6.05
2019-02-22T23:31:38.081Z,7.37
2019-02-22T23:34:06.469Z,7.30
2019-02-22T23:36:34.883Z,8.23
2019-02-22T23:39:03.984Z,5.72
2019-02-22T23:41:32.719Z,8.98
2019-02-22T23:44:01.120Z,7.37
2019-02-22T23:46:29.895Z,8.98
2019-02-22T23:48:58.295Z,8.13
2019-02-22T23:51:26.692Z,6.65
2019-02-22T23:53:55.099Z,7.20
2019-02-22T23:56:23.854Z,9.85
2019-02-22T23:58:52.271Z,6.50
